Terminal Aerodrome Forecast
Issued by NWS Tulsa, OK

Home | Current Version | Previous Version | Text Only | Print | Product List | Glossary On
Versions: 1 2 3 4 5 6 7 8 9 10 11 12 13 14
167
FTUS44 KTSA 121952 AAA
TAFTUL
TAF AMD
KTUL 121952Z 1220/1318 02012KT P6SM BKN250
     FM122200 03010KT P6SM BKN120
     FM130800 06010KT P6SM SCT250=

USA.gov is the U.S. government's official web portal to all federal, state and local government web resources and services.